Time;durP1;ratioP1;P1;durP2;ratioP2;P2;SDS_P1;SDS_P2;PMS_P1;PMS_P2;Temp;Humidity;BMP_temperature;BMP_pressure;BME280_temperature;BME280_humidity;BME280_pressure;Samples;Min_cycle;Max_cycle;Signal;HPM_P1;HPM_P2
2021/07/19 00:01:26;;;;;;;113.68;104.28;;;;;;;20.05;100.00;100206.81;4939067;29;20047;-79
2021/07/19 00:03:53;;;;;;;96.38;88.15;;;;;;;20.23;100.00;100211.53;4963004;29;20059;-79
2021/07/19 00:06:20;;;;;;;89.38;81.32;;;;;;;19.97;100.00;100207.41;4944012;29;20048;-79
2021/07/19 00:08:48;;;;;;;97.65;89.20;;;;;;;20.19;100.00;100212.38;4937826;29;20048;-78
2021/07/19 00:11:15;;;;;;;87.75;79.88;;;;;;;20.23;100.00;100214.22;4941195;29;20036;-79
2021/07/19 00:13:42;;;;;;;104.55;95.38;;;;;;;19.97;100.00;100212.81;4943786;29;20125;-79
2021/07/19 00:16:18;;;;;;;86.43;78.70;;;;;;;20.16;100.00;100213.75;4944387;29;20123;-79
2021/07/19 00:18:44;;;;;;;87.30;79.55;;;;;;;20.24;100.00;100209.63;4943667;29;20051;-77
2021/07/19 00:21:13;;;;;;;94.00;85.30;;;;;;;19.65;100.00;100208.72;4940981;29;20067;-78
2021/07/19 00:23:40;;;;;;;109.82;100.95;;;;;;;19.87;100.00;100211.00;4942756;29;20055;-82
2021/07/19 00:26:09;;;;;;;86.57;78.57;;;;;;;20.09;100.00;100214.06;4940859;29;20115;-79
2021/07/19 00:28:36;;;;;;;93.88;85.30;;;;;;;19.94;100.00;100211.50;4963024;29;20059;-78
2021/07/19 00:31:03;;;;;;;95.82;87.55;;;;;;;19.77;100.00;100230.72;4954609;29;20106;-78
2021/07/19 00:33:36;;;;;;;107.53;98.97;;;;;;;19.90;100.00;100229.28;4951049;29;20051;-78
2021/07/19 00:36:03;;;;;;;99.13;90.43;;;;;;;19.60;100.00;100219.47;4951967;29;20089;-77
2021/07/19 00:38:29;;;;;;;83.68;76.32;;;;;;;19.79;100.00;100211.56;4949467;28;20047;-79
2021/07/19 00:40:56;;;;;;;87.03;79.38;;;;;;;19.86;100.00;100212.88;4962238;29;20044;-78
2021/07/19 00:43:25;;;;;;;86.07;78.40;;;;;;;19.79;100.00;100214.25;4967247;29;20464;-79
2021/07/19 00:45:53;;;;;;;81.38;74.05;;;;;;;19.97;100.00;100220.88;4951701;29;20055;-77
2021/07/19 00:48:22;;;;;;;89.25;81.28;;;;;;;19.77;100.00;100221.84;4944239;29;20043;-79
2021/07/19 00:50:49;;;;;;;95.68;87.60;;;;;;;19.74;100.00;100228.59;4944545;29;20055;-79
2021/07/19 00:53:16;;;;;;;95.22;86.63;;;;;;;19.77;100.00;100222.63;4944456;29;20056;-80
2021/07/19 00:55:45;;;;;;;96.00;87.60;;;;;;;20.01;100.00;100220.06;4948796;29;20437;-78
2021/07/19 00:58:14;;;;;;;103.32;94.88;;;;;;;19.99;100.00;100214.13;4950158;29;20121;-77
2021/07/19 01:00:47;;;;;;;99.22;90.63;;;;;;;19.76;100.00;100206.75;4949335;29;20048;-79
2021/07/19 01:03:15;;;;;;;110.18;100.90;;;;;;;19.97;100.00;100213.63;4941827;29;20080;-79
2021/07/19 01:05:44;;;;;;;98.22;89.70;;;;;;;19.30;100.00;100209.66;4944490;29;20128;-78
2021/07/19 01:08:13;;;;;;;104.50;95.43;;;;;;;19.75;100.00;100208.63;4946860;29;20051;-78
2021/07/19 01:10:49;;;;;;;110.57;101.32;;;;;;;19.69;100.00;100209.75;4952906;29;20114;-78
2021/07/19 01:13:16;;;;;;;101.82;93.25;;;;;;;19.70;100.00;100208.69;4947075;29;20063;-79
2021/07/19 01:15:44;;;;;;;89.10;81.22;;;;;;;19.86;100.00;100204.00;4951236;29;20469;-77
2021/07/19 01:18:14;;;;;;;87.97;80.38;;;;;;;20.10;100.00;100204.91;4960197;29;20059;-78
2021/07/19 01:21:01;;;;;;;114.63;105.63;;;;;;;20.02;100.00;100205.50;4940696;29;20500;-79
2021/07/19 01:24:03;;;;;;;101.25;92.85;;;;;;;19.74;100.00;100196.25;4940356;29;20074;-77
2021/07/19 01:26:47;;;;;;;119.05;109.30;;;;;;;19.95;100.00;100201.50;4951064;29;20106;-77
2021/07/19 01:29:19;;;;;;;105.35;96.47;;;;;;;20.02;100.00;100207.38;4965311;29;20114;-79
2021/07/19 01:31:47;;;;;;;110.85;101.43;;;;;;;19.95;100.00;100218.47;4969622;29;20092;-82
2021/07/19 01:34:18;;;;;;;108.75;99.25;;;;;;;19.86;100.00;100214.78;4965129;28;20035;-78
2021/07/19 01:36:49;;;;;;;111.72;102.50;;;;;;;19.63;100.00;100216.22;4953414;29;20185;-78
2021/07/19 01:39:17;;;;;;;114.20;104.80;;;;;;;19.74;100.00;100222.41;4957698;29;20051;-79
2021/07/19 01:41:45;;;;;;;112.18;102.95;;;;;;;19.54;100.00;100236.75;4954461;29;20047;-79
2021/07/19 01:44:12;;;;;;;101.90;93.07;;;;;;;19.53;100.00;100243.22;4943230;29;20055;-77
2021/07/19 01:46:42;;;;;;;105.65;96.22;;;;;;;19.47;100.00;100223.59;4944836;29;20035;-79
2021/07/19 01:49:10;;;;;;;113.60;103.95;;;;;;;19.61;100.00;100223.78;4944889;29;20056;-78
2021/07/19 01:51:39;;;;;;;124.55;114.15;;;;;;;19.63;100.00;100225.09;4944651;28;20060;-78
2021/07/19 01:54:06;;;;;;;117.75;107.53;;;;;;;19.52;100.00;100222.75;4951426;29;20051;-79
2021/07/19 01:56:33;;;;;;;123.05;112.65;;;;;;;19.43;100.00;100228.72;4947489;29;20129;-77
2021/07/19 01:59:00;;;;;;;113.28;103.78;;;;;;;19.14;100.00;100228.56;4958974;29;20118;-79
2021/07/19 02:01:28;;;;;;;131.43;120.57;;;;;;;19.23;100.00;100239.56;5071870;23;20055;-78
2021/07/19 02:03:56;;;;;;;130.40;119.30;;;;;;;19.39;100.00;100243.00;4963947;29;20055;-77
2021/07/19 02:06:25;;;;;;;137.85;126.47;;;;;;;19.40;100.00;100239.25;4958628;29;20047;-79
2021/07/19 02:08:55;;;;;;;145.60;133.90;;;;;;;18.82;100.00;100237.00;4957761;29;20047;-77
2021/07/19 02:11:26;;;;;;;127.63;116.60;;;;;;;19.35;100.00;100240.06;4944286;29;20088;-77
2021/07/19 02:13:53;;;;;;;121.43;111.47;;;;;;;19.50;100.00;100247.25;4954328;29;20055;-79
2021/07/19 02:16:22;;;;;;;130.93;120.30;;;;;;;19.43;100.00;100250.25;4961805;29;20107;-77
2021/07/19 02:18:50;;;;;;;140.65;128.85;;;;;;;19.23;100.00;100253.81;4960131;29;20047;-78
2021/07/19 02:21:23;;;;;;;127.20;116.53;;;;;;;19.28;100.00;100257.59;4964722;28;20095;-84
2021/07/19 02:23:50;;;;;;;103.65;94.38;;;;;;;19.16;100.00;100244.44;4954127;28;20077;-78
2021/07/19 02:26:25;;;;;;;96.03;87.05;;;;;;;19.34;100.00;100248.41;4940057;29;20044;-80
2021/07/19 02:28:53;;;;;;;105.05;95.50;;;;;;;19.18;100.00;100256.56;4946139;28;20085;-79
2021/07/19 02:31:22;;;;;;;97.68;88.82;;;;;;;19.31;100.00;100255.16;4941792;29;20070;-78
2021/07/19 02:33:50;;;;;;;101.22;92.38;;;;;;;19.58;100.00;100259.38;4943660;29;20095;-78
2021/07/19 02:36:19;;;;;;;105.57;96.10;;;;;;;19.25;100.00;100250.06;4944851;29;20032;-79
2021/07/19 02:38:48;;;;;;;96.55;87.85;;;;;;;19.37;100.00;100253.25;4950486;29;20059;-79
2021/07/19 02:41:19;;;;;;;113.05;104.10;;;;;;;19.47;100.00;100263.19;4961454;28;20035;-80
2021/07/19 02:43:48;;;;;;;131.63;121.13;;;;;;;19.43;100.00;100269.13;4963509;29;20070;-80
2021/07/19 02:46:16;;;;;;;127.68;117.28;;;;;;;19.55;100.00;100278.78;4960088;29;20051;-80
2021/07/19 02:48:44;;;;;;;128.00;117.63;;;;;;;19.32;100.00;100264.84;4963289;28;20051;-79
2021/07/19 02:51:11;;;;;;;129.55;118.45;;;;;;;19.49;100.00;100269.09;4965963;29;20419;-79
2021/07/19 02:53:40;;;;;;;145.43;133.57;;;;;;;19.47;100.00;100276.63;4958127;29;20055;-78
2021/07/19 02:56:08;;;;;;;149.85;138.15;;;;;;;19.49;100.00;100274.50;4964940;29;20031;-79
2021/07/19 02:58:36;;;;;;;166.88;153.80;;;;;;;19.30;100.00;100280.44;4965438;29;20047;-77
2021/07/19 03:01:03;;;;;;;143.93;132.02;;;;;;;19.29;100.00;100275.34;4959291;28;20099;-79
2021/07/19 03:03:33;;;;;;;129.30;117.82;;;;;;;19.55;100.00;100278.78;4960808;28;20051;-79
2021/07/19 03:06:04;;;;;;;139.98;128.07;;;;;;;19.37;100.00;100262.13;4964724;28;20051;-78
2021/07/19 03:08:34;;;;;;;125.35;114.90;;;;;;;19.41;100.00;100270.47;4940746;29;20143;-79
2021/07/19 03:11:06;;;;;;;144.00;132.50;;;;;;;19.48;100.00;100275.56;4946128;29;20083;-83
2021/07/19 03:13:34;;;;;;;140.27;128.63;;;;;;;19.21;100.00;100266.78;4946945;28;20056;-79
2021/07/19 03:16:02;;;;;;;126.20;115.25;;;;;;;19.38;100.00;100262.94;4937985;29;20062;-79
2021/07/19 03:18:32;;;;;;;119.03;108.63;;;;;;;19.52;100.00;100269.34;4942462;29;20069;-79
2021/07/19 03:20:59;;;;;;;118.80;109.60;;;;;;;19.74;100.00;100268.19;4939129;29;20059;-77
2021/07/19 03:23:29;;;;;;;106.82;98.03;;;;;;;19.97;100.00;100254.06;4965175;29;20468;-80
2021/07/19 03:25:58;;;;;;;128.25;118.07;;;;;;;19.87;100.00;100249.50;4958284;29;20094;-80
2021/07/19 03:28:27;;;;;;;127.95;117.63;;;;;;;19.87;100.00;100244.13;4952466;29;20047;-79
2021/07/19 03:30:54;;;;;;;116.53;107.43;;;;;;;19.84;100.00;100241.19;4942934;29;20059;-79
2021/07/19 03:33:22;;;;;;;119.15;109.53;;;;;;;19.79;100.00;100238.50;4940368;29;20055;-78
2021/07/19 03:35:49;;;;;;;120.15;111.07;;;;;;;19.73;100.00;100239.63;4962734;29;20051;-79
2021/07/19 03:38:18;;;;;;;116.70;106.90;;;;;;;19.73;100.00;100231.53;4943281;29;20409;-78
2021/07/19 03:40:45;;;;;;;117.72;108.22;;;;;;;19.54;100.00;100247.50;4944674;29;20051;-79
2021/07/19 03:43:12;;;;;;;149.20;136.82;;;;;;;19.50;100.00;100252.66;4938040;29;20055;-77
2021/07/19 03:45:41;;;;;;;144.82;132.40;;;;;;;19.57;100.00;100263.13;4957101;29;20126;-78
2021/07/19 03:48:09;;;;;;;121.35;110.95;;;;;;;19.65;100.00;100262.59;4957292;29;20054;-79
2021/07/19 03:50:37;;;;;;;140.73;129.45;;;;;;;19.70;100.00;100270.66;4958464;29;20051;-77
2021/07/19 03:53:04;;;;;;;129.73;119.25;;;;;;;19.64;100.00;100272.56;4940665;29;20147;-79
2021/07/19 03:55:34;;;;;;;119.53;109.85;;;;;;;19.81;100.00;100282.97;4941587;29;20056;-81
2021/07/19 03:58:01;;;;;;;127.15;116.75;;;;;;;19.77;100.00;100298.09;4953392;29;20440;-79
2021/07/19 04:00:30;;;;;;;107.40;98.43;;;;;;;19.53;100.00;100297.09;4957617;29;20051;-79
2021/07/19 04:03:04;;;;;;;101.57;92.82;;;;;;;19.77;100.00;100290.00;4960985;29;20070;-78
2021/07/19 04:05:39;;;;;;;95.93;87.63;;;;;;;19.89;100.00;100295.88;4961167;29;20476;-79
2021/07/19 04:08:09;;;;;;;108.00;99.40;;;;;;;19.70;100.00;100305.66;4960061;29;20114;-79
2021/07/19 04:10:36;;;;;;;130.70;120.38;;;;;;;19.48;100.00;100299.78;4949837;29;20508;-79
2021/07/19 04:13:06;;;;;;;107.97;98.95;;;;;;;19.80;100.00;100299.41;4939388;29;20477;-80
2021/07/19 04:15:34;;;;;;;120.93;111.80;;;;;;;19.75;100.00;100316.41;4966508;29;20031;-79
2021/07/19 04:18:02;;;;;;;100.75;92.60;;;;;;;19.93;100.00;100322.25;4964001;29;20062;-78
2021/07/19 04:20:29;;;;;;;107.50;98.95;;;;;;;20.18;100.00;100332.09;4956629;29;20101;-80
2021/07/19 04:22:58;;;;;;;96.85;88.68;;;;;;;20.11;100.00;100335.88;4953171;29;20114;-80
2021/07/19 04:25:25;;;;;;;113.18;103.43;;;;;;;20.27;100.00;100343.88;4962860;29;20055;-80
2021/07/19 04:27:57;;;;;;;104.75;95.50;;;;;;;20.47;100.00;100340.25;4961054;29;20043;-82
2021/07/19 04:30:32;;;;;;;105.22;96.43;;;;;;;20.29;100.00;100336.34;4954153;29;20059;-79
2021/07/19 04:32:59;;;;;;;103.40;95.10;;;;;;;20.46;100.00;100336.75;4961949;29;20094;-80
2021/07/19 04:35:27;;;;;;;102.28;93.97;;;;;;;20.59;100.00;100341.53;4957049;29;20063;-78
2021/07/19 04:37:57;;;;;;;104.53;96.03;;;;;;;20.66;100.00;100352.00;4955625;29;20051;-79
2021/07/19 04:40:29;;;;;;;111.97;102.57;;;;;;;20.67;100.00;100352.84;4961814;29;20047;-79
2021/07/19 04:42:56;;;;;;;;;;;;;;;20.55;100.00;100345.09;4969659;29;20055;-79
2021/07/19 04:45:23;;;;;;;117.18;107.28;;;;;;;20.91;100.00;100318.63;4964404;29;19950;-80
2021/07/19 04:47:50;;;;;;;116.75;106.85;;;;;;;21.14;100.00;100298.13;4961693;29;20518;-79
2021/07/19 04:50:18;;;;;;;110.03;101.03;;;;;;;21.31;100.00;100308.50;4965378;29;20494;-80
2021/07/19 04:52:47;;;;;;;116.30;106.90;;;;;;;21.34;100.00;100324.13;4960595;29;20051;-81
2021/07/19 04:55:21;;;;;;;120.03;109.82;;;;;;;21.35;100.00;100330.31;4961872;29;20051;-80
2021/07/19 04:57:52;;;;;;;114.80;105.32;;;;;;;21.54;100.00;100335.81;4962666;29;20063;-80
2021/07/19 05:00:20;;;;;;;119.00;108.72;;;;;;;21.62;100.00;100335.97;4952246;29;20043;-77
2021/07/19 05:02:49;;;;;;;118.25;108.72;;;;;;;21.84;100.00;100331.91;4946523;29;20055;-79
2021/07/19 05:05:19;;;;;;;121.03;111.20;;;;;;;21.55;100.00;100332.81;4943902;29;20059;-77
2021/07/19 05:07:48;;;;;;;129.93;118.43;;;;;;;21.56;100.00;100326.31;4942027;29;20480;-79
2021/07/19 05:10:17;;;;;;;118.15;109.07;;;;;;;21.95;100.00;100330.69;4944670;29;20466;-78
2021/07/19 05:12:49;;;;;;;114.47;105.50;;;;;;;22.06;100.00;100315.13;4941741;29;20052;-79
2021/07/19 05:15:17;;;;;;;100.93;92.80;;;;;;;22.15;100.00;100313.41;4960747;29;20073;-79
2021/07/19 05:17:44;;;;;;;88.88;82.15;;;;;;;22.48;100.00;100314.28;4960027;29;20476;-78
2021/07/19 05:20:12;;;;;;;97.30;89.82;;;;;;;22.83;100.00;100310.16;4960781;29;20129;-79
2021/07/19 05:22:39;;;;;;;81.55;75.05;;;;;;;22.82;100.00;100313.19;4959998;29;20058;-77
2021/07/19 05:25:13;;;;;;;81.85;75.13;;;;;;;22.78;100.00;100310.22;4963029;28;20050;-79
2021/07/19 05:28:03;;;;;;;92.57;85.57;;;;;;;23.04;100.00;100307.13;4957480;29;20559;-77
2021/07/19 05:30:32;;;;;;;86.55;79.82;;;;;;;23.09;100.00;100304.31;4940484;29;20553;-78
2021/07/19 05:32:58;;;;;;;92.82;85.28;;;;;;;22.88;100.00;100305.78;4939054;29;20044;-79
2021/07/19 05:35:31;;;;;;;88.25;81.20;;;;;;;23.26;100.00;100314.56;4946153;29;20441;-84
2021/07/19 05:37:58;;;;;;;71.72;66.28;;;;;;;24.91;100.00;100305.19;4940736;29;20472;-79
2021/07/19 05:40:27;;;;;;;72.43;66.57;;;;;;;24.58;100.00;100299.25;4949490;29;20051;-78
2021/07/19 05:42:54;;;;;;;84.13;77.72;;;;;;;23.74;100.00;100314.16;4957912;29;20055;-79
2021/07/19 05:45:21;;;;;;;90.88;83.93;;;;;;;23.44;100.00;100318.28;4953206;29;20055;-78
2021/07/19 05:47:48;;;;;;;99.60;90.78;;;;;;;23.12;100.00;100316.44;4958013;29;20094;-79
2021/07/19 05:50:15;;;;;;;95.32;87.85;;;;;;;23.38;100.00;100327.59;4959095;29;20133;-79
2021/07/19 05:52:42;;;;;;;99.82;91.10;;;;;;;22.97;100.00;100328.38;4960480;29;20054;-78
2021/07/19 05:55:09;;;;;;;102.25;94.05;;;;;;;23.53;100.00;100333.53;4958151;29;20488;-79
2021/07/19 05:57:38;;;;;;;100.43;92.10;;;;;;;23.87;100.00;100320.66;4951672;29;20114;-78
2021/07/19 06:00:09;;;;;;;93.90;86.35;;;;;;;24.01;100.00;100313.31;4941280;29;20052;-79
2021/07/19 06:02:36;;;;;;;86.57;80.00;;;;;;;24.23;100.00;100316.03;4950557;29;20122;-77
2021/07/19 06:05:03;;;;;;;89.22;82.15;;;;;;;24.29;100.00;100322.16;4958934;29;20071;-79
2021/07/19 06:07:30;;;;;;;97.38;89.78;;;;;;;24.45;100.00;100322.66;4960673;29;20544;-78
2021/07/19 06:09:57;;;;;;;91.00;83.93;;;;;;;24.65;100.00;100313.19;4957641;29;20050;-80
2021/07/19 06:12:24;;;;;;;78.93;72.57;;;;;;;24.80;100.00;100318.22;4961868;29;20058;-78
2021/07/19 06:14:58;;;;;;;75.03;69.22;;;;;;;24.71;100.00;100320.09;4959274;29;20490;-80
2021/07/19 06:17:24;;;;;;;74.03;67.97;;;;;;;24.72;100.00;100316.28;4959430;29;20051;-77
2021/07/19 06:19:51;;;;;;;70.55;64.85;;;;;;;25.13;100.00;100324.19;4956929;29;20051;-78
2021/07/19 06:22:18;;;;;;;73.38;67.78;;;;;;;25.07;100.00;100321.88;4960352;29;20055;-78
2021/07/19 06:24:45;;;;;;;67.00;61.80;;;;;;;25.17;100.00;100324.34;4959095;29;20122;-78
2021/07/19 06:27:12;;;;;;;66.57;61.10;;;;;;;25.34;100.00;100327.16;4960326;29;20138;-78
2021/07/19 06:29:39;;;;;;;68.55;62.70;;;;;;;25.61;100.00;100327.25;4957330;29;20129;-78
2021/07/19 06:32:08;;;;;;;63.50;58.10;;;;;;;25.66;100.00;100324.34;4951901;29;20448;-77
2021/07/19 06:34:34;;;;;;;63.22;58.35;;;;;;;25.83;100.00;100318.19;4940827;29;20133;-78
2021/07/19 06:37:03;;;;;;;65.63;60.53;;;;;;;25.97;100.00;100321.56;4941275;29;20059;-77
2021/07/19 06:39:30;;;;;;;73.85;68.07;;;;;;;26.18;100.00;100325.25;4948833;29;20051;-78
2021/07/19 06:41:56;;;;;;;78.90;72.90;;;;;;;26.53;100.00;100325.25;4958509;29;20059;-77
2021/07/19 06:44:25;;;;;;;62.47;57.38;;;;;;;26.43;100.00;100320.13;4950908;29;20051;-77
2021/07/19 06:46:56;;;;;;;60.63;55.25;;;;;;;26.49;100.00;100316.16;4940499;29;20114;-76
2021/07/19 06:49:24;;;;;;;63.00;57.97;;;;;;;26.70;100.00;100311.63;4943627;29;20047;-77
2021/07/19 06:51:52;;;;;;;50.17;46.17;;;;;;;26.89;100.00;100308.53;4946212;29;20056;-77
2021/07/19 06:54:19;;;;;;;57.92;52.65;;;;;;;26.95;100.00;100304.50;4944859;29;20058;-77
2021/07/19 06:56:46;;;;;;;57.63;52.28;;;;;;;27.13;100.00;100315.34;4941820;29;20059;-78
2021/07/19 06:59:13;;;;;;;50.53;46.35;;;;;;;27.11;100.00;100312.13;4952777;29;20087;-76
2021/07/19 07:01:40;;;;;;;53.63;48.92;;;;;;;27.46;100.00;100307.34;4950527;29;20127;-76
2021/07/19 07:04:08;;;;;;;52.20;47.95;;;;;;;27.55;100.00;100305.38;4955048;29;20082;-77
2021/07/19 07:06:37;;;;;;;48.83;44.72;;;;;;;27.51;100.00;100296.25;4956864;29;20062;-77
2021/07/19 07:09:04;;;;;;;49.67;44.97;;;;;;;27.73;100.00;100303.34;4944984;29;20055;-78
2021/07/19 07:11:31;;;;;;;41.47;37.63;;;;;;;27.63;100.00;100296.34;4937762;29;20055;-78
2021/07/19 07:13:58;;;;;;;45.97;41.78;;;;;;;27.74;100.00;100298.69;4936450;29;20059;-77
2021/07/19 07:16:25;;;;;;;47.88;43.88;;;;;;;27.81;100.00;100288.88;4936759;29;20059;-78
2021/07/19 07:18:52;;;;;;;43.35;39.55;;;;;;;27.92;100.00;100292.00;4937942;29;20048;-77
2021/07/19 07:21:21;;;;;;;47.50;43.65;;;;;;;28.19;100.00;100289.84;4937112;29;20055;-78
2021/07/19 07:23:49;;;;;;;49.80;45.40;;;;;;;28.42;100.00;100282.94;4948721;29;20051;-78
2021/07/19 07:26:16;;;;;;;40.42;37.03;;;;;;;28.20;100.00;100284.06;4955779;29;20085;-77
2021/07/19 07:28:42;;;;;;;44.72;40.45;;;;;;;28.09;100.00;100288.34;4958435;29;20047;-77
2021/07/19 07:31:11;;;;;;;47.50;43.50;;;;;;;28.44;100.00;100288.03;4945138;29;20052;-75
2021/07/19 07:33:37;;;;;;;41.95;38.13;;;;;;;28.31;100.00;100282.50;4947894;28;20050;-80
2021/07/19 07:36:05;;;;;;;49.22;45.03;;;;;;;28.78;100.00;100278.69;4976134;28;20058;-77
2021/07/19 07:38:32;;;;;;;42.60;39.13;;;;;;;28.80;100.00;100283.81;4975316;28;20479;-77
2021/07/19 07:41:00;;;;;;;40.60;37.13;;;;;;;28.52;100.00;100278.97;4955318;29;20113;-77
2021/07/19 07:43:28;;;;;;;43.92;40.50;;;;;;;28.92;100.00;100289.28;4951663;29;20529;-77
2021/07/19 07:45:55;;;;;;;43.50;39.90;;;;;;;28.86;100.00;100280.50;4953050;29;20101;-77
2021/07/19 07:48:22;;;;;;;40.75;37.45;;;;;;;28.86;100.00;100285.19;4955709;29;20059;-78
2021/07/19 07:50:49;;;;;;;48.05;43.95;;;;;;;29.00;100.00;100274.72;4955577;29;20110;-77
2021/07/19 07:53:16;;;;;;;47.30;43.58;;;;;;;29.12;100.00;100272.03;4954698;28;20055;-78
2021/07/19 07:55:42;;;;;;;47.88;43.80;;;;;;;29.09;100.00;100271.91;4941123;29;20122;-80
2021/07/19 07:58:10;;;;;;;45.72;41.85;;;;;;;29.15;100.00;100273.28;4937446;29;20052;-78
2021/07/19 08:00:37;;;;;;;50.75;46.50;;;;;;;29.62;100.00;100273.63;4939746;29;20094;-78
2021/07/19 08:03:05;;;;;;;48.08;44.33;;;;;;;29.90;100.00;100272.88;4955067;28;20070;-78
2021/07/19 08:05:31;;;;;;;40.10;36.75;;;;;;;29.08;100.00;100270.31;4955027;29;20055;-77
2021/07/19 08:07:58;;;;;;;45.30;41.72;;;;;;;29.53;100.00;100270.16;4954878;29;20106;-78
2021/07/19 08:10:25;;;;;;;41.10;37.58;;;;;;;29.50;100.00;100270.84;4955123;29;20058;-78
2021/07/19 08:12:51;;;;;;;45.35;41.85;;;;;;;29.83;100.00;100265.22;4939646;29;20125;-78
2021/07/19 08:15:20;;;;;;;42.15;38.67;;;;;;;29.59;100.00;100257.88;4952763;28;20051;-77
2021/07/19 08:17:46;;;;;;;48.08;44.30;;;;;;;29.79;100.00;100264.31;4950723;29;20448;-78
2021/07/19 08:20:14;;;;;;;42.75;39.22;;;;;;;29.54;100.00;100260.81;4951805;29;20118;-77
2021/07/19 08:22:41;;;;;;;46.20;42.10;;;;;;;30.02;100.00;100259.13;4953509;29;20138;-78
2021/07/19 08:25:09;;;;;;;41.83;37.85;;;;;;;30.25;100.00;100259.38;4941627;29;20544;-78
2021/07/19 08:27:36;;;;;;;41.60;38.22;;;;;;;30.29;100.00;100256.78;4948948;29;20059;-78
2021/07/19 08:30:04;;;;;;;39.78;36.45;;;;;;;30.72;100.00;100258.66;4946776;29;20141;-78
2021/07/19 08:32:32;;;;;;;38.90;35.80;;;;;;;30.67;100.00;100253.44;4937909;29;20048;-78
2021/07/19 08:34:58;;;;;;;37.85;34.70;;;;;;;29.79;100.00;100249.84;4944876;29;20052;-78
2021/07/19 08:37:27;;;;;;;39.60;36.35;;;;;;;30.53;100.00;100250.34;4936260;29;20374;-78
2021/07/19 08:39:55;;;;;;;40.42;36.78;;;;;;;30.66;100.00;100251.88;4944153;29;20052;-78
2021/07/19 08:42:23;;;;;;;36.78;33.72;;;;;;;30.53;100.00;100239.38;4943543;29;20176;-77
2021/07/19 08:44:49;;;;;;;37.22;34.22;;;;;;;30.02;100.00;100248.19;4953551;29;20055;-78
2021/07/19 08:47:18;;;;;;;34.38;31.08;;;;;;;29.54;100.00;100232.69;4949819;29;20126;-78
2021/07/19 08:49:46;;;;;;;38.03;35.03;;;;;;;30.37;100.00;100242.09;4939151;29;20058;-78
2021/07/19 08:52:16;;;;;;;34.85;31.80;;;;;;;30.65;100.00;100235.75;4939643;29;20066;-77
2021/07/19 08:54:47;;;;;;;36.15;33.42;;;;;;;30.95;100.00;100231.44;4941178;29;20135;-78
2021/07/19 08:57:16;;;;;;;35.03;32.25;;;;;;;30.79;100.00;100230.66;4935136;29;20091;-77
2021/07/19 08:59:43;;;;;;;34.33;31.60;;;;;;;31.40;100.00;100232.09;4944034;28;20468;-78
2021/07/19 09:02:10;;;;;;;33.35;30.55;;;;;;;31.13;100.00;100229.13;4953014;28;20493;-78
2021/07/19 09:04:38;;;;;;;33.50;30.65;;;;;;;31.16;100.00;100235.84;4938594;29;20052;-78
2021/07/19 09:07:06;;;;;;;33.25;30.80;;;;;;;31.39;100.00;100234.06;4938842;29;20147;-77
2021/07/19 09:09:35;;;;;;;33.80;31.35;;;;;;;30.63;100.00;100233.38;4940200;29;20060;-77
2021/07/19 09:12:04;;;;;;;32.95;30.23;;;;;;;31.13;100.00;100234.59;4951074;28;20050;-78
2021/07/19 09:14:31;;;;;;;30.52;28.33;;;;;;;31.11;100.00;100230.66;4959370;28;20087;-77
2021/07/19 09:16:58;;;;;;;31.88;29.00;;;;;;;31.20;100.00;100223.81;4957191;29;20051;-78
2021/07/19 09:19:31;;;;;;;31.30;28.77;;;;;;;31.62;100.00;100222.38;4956812;29;20109;-77
2021/07/19 09:21:59;;;;;;;31.85;29.10;;;;;;;31.81;100.00;100218.88;4948692;29;20469;-78
2021/07/19 09:24:30;;;;;;;31.05;28.80;;;;;;;30.75;100.00;100227.03;4954787;29;20055;-77
2021/07/19 09:26:58;;;;;;;30.23;28.02;;;;;;;31.69;100.00;100226.09;4957299;29;20140;-78
2021/07/19 09:29:26;;;;;;;32.63;30.40;;;;;;;32.22;100.00;100222.03;4951521;29;20047;-77
2021/07/19 09:31:55;;;;;;;32.67;30.38;;;;;;;32.52;100.00;100219.44;4949916;29;20522;-78
2021/07/19 09:34:23;;;;;;;35.50;32.95;;;;;;;32.07;100.00;100226.44;4948480;29;20055;-78
2021/07/19 09:36:57;;;;;;;31.55;29.45;;;;;;;32.25;100.00;100224.81;4952879;29;20429;-77
2021/07/19 09:39:25;;;;;;;34.78;32.35;;;;;;;32.29;100.00;100224.91;4945469;29;20058;-77
2021/07/19 09:42:08;;;;;;;37.40;34.22;;;;;;;31.74;100.00;100226.94;4947837;29;20070;-77
2021/07/19 09:44:35;;;;;;;33.47;30.77;;;;;;;31.97;100.00;100232.53;4956715;29;20130;-78
2021/07/19 09:47:03;;;;;;;31.83;29.40;;;;;;;32.52;100.00;100235.94;4956186;29;20059;-77
2021/07/19 09:49:31;;;;;;;37.60;34.42;;;;;;;32.74;100.00;100226.91;4937825;29;20123;-78
2021/07/19 09:52:04;;;;;;;32.78;30.45;;;;;;;32.31;100.00;100230.81;4948534;29;20083;-77
2021/07/19 09:54:40;;;;;;;33.92;31.27;;;;;;;31.79;100.00;100230.19;4955447;29;20051;-79
2021/07/19 09:57:09;;;;;;;33.85;31.25;;;;;;;32.28;100.00;100231.56;4948222;29;20043;-78
2021/07/19 09:59:49;;;;;;;33.20;30.70;;;;;;;32.71;100.00;100227.63;4950142;29;20077;-78
2021/07/19 10:02:30;;;;;;;34.20;31.35;;;;;;;32.47;100.00;100228.00;4956094;28;20047;-78
2021/07/19 10:04:57;;;;;;;29.65;27.45;;;;;;;32.46;100.00;100224.44;4960062;28;20125;-78
2021/07/19 10:07:24;;;;;;;29.25;27.10;;;;;;;32.61;100.00;100220.78;4957732;28;20047;-80
2021/07/19 10:09:55;;;;;;;29.83;27.20;;;;;;;32.24;100.00;100222.47;4943957;29;20486;-78
2021/07/19 10:12:24;;;;;;;30.17;27.98;;;;;;;32.44;100.00;100223.19;4936292;29;20122;-78
2021/07/19 10:14:52;;;;;;;30.73;28.17;;;;;;;32.55;100.00;100227.75;4954644;29;20416;-77
2021/07/19 10:17:20;;;;;;;33.33;30.83;;;;;;;31.53;100.00;100227.28;4951979;29;20448;-78
2021/07/19 10:19:47;;;;;;;30.35;27.88;;;;;;;32.45;100.00;100225.63;4951816;29;20040;-78
2021/07/19 10:22:15;;;;;;;33.10;30.50;;;;;;;31.66;100.00;100226.81;4937192;29;20055;-77
2021/07/19 10:24:42;;;;;;;31.00;28.60;;;;;;;31.43;100.00;100215.72;4938050;29;20528;-77
2021/07/19 10:27:13;;;;;;;29.98;27.48;;;;;;;32.00;100.00;100207.88;4937710;29;20059;-77
2021/07/19 10:29:44;;;;;;;30.98;28.27;;;;;;;32.61;100.00;100218.03;4947946;29;20154;-78
2021/07/19 10:32:11;;;;;;;32.33;30.00;;;;;;;30.78;100.00;100220.88;4945653;29;20054;-78
2021/07/19 10:34:38;;;;;;;31.42;28.92;;;;;;;32.50;100.00;100219.81;4948549;29;20481;-76
2021/07/19 10:37:10;;;;;;;32.58;30.08;;;;;;;32.59;100.00;100217.63;4947581;29;20495;-77
2021/07/19 10:39:39;;;;;;;32.55;29.90;;;;;;;32.54;100.00;100212.44;4948179;29;20479;-77
2021/07/19 10:42:08;;;;;;;30.67;28.67;;;;;;;32.48;100.00;100202.91;4948253;29;20560;-79
2021/07/19 10:44:37;;;;;;;30.48;28.38;;;;;;;32.85;100.00;100216.06;4955647;29;20468;-78
2021/07/19 10:47:16;;;;;;;31.50;29.13;;;;;;;31.43;100.00;100207.50;4950731;29;20130;-77
2021/07/19 10:49:55;;;;;;;31.88;29.48;;;;;;;32.42;100.00;100206.28;4946812;29;20136;-78
2021/07/19 10:52:30;;;;;;;31.48;28.90;;;;;;;32.04;100.00;100196.97;4954789;29;20536;-78
2021/07/19 10:54:58;;;;;;;31.60;28.90;;;;;;;33.07;100.00;100200.69;4949630;29;20056;-78
2021/07/19 10:57:34;;;;;;;31.23;28.73;;;;;;;32.43;100.00;100196.88;4936763;29;20052;-77
2021/07/19 11:00:04;;;;;;;33.45;30.20;;;;;;;32.71;100.00;100191.09;4936431;29;20052;-78
2021/07/19 11:02:32;;;;;;;32.22;29.52;;;;;;;33.08;100.00;100190.53;4949622;29;20142;-78
2021/07/19 11:04:58;;;;;;;31.35;28.88;;;;;;;33.22;100.00;100193.44;4955783;29;20455;-78